Time;durP1;ratioP1;P1;durP2;ratioP2;P2;SDS_P1;SDS_P2;PMS_P1;PMS_P2;Temp;Humidity;BMP_temperature;BMP_pressure;BME280_temperature;BME280_humidity;BME280_pressure;Samples;Min_cycle;Max_cycle;Signal;HPM_P1;HPM_P2
2024/04/16 00:01:03;;;;;;;0.60;0.60;;;9.80;99.90;;;;;;5431861;26;20339;-72
2024/04/16 00:03:30;;;;;;;2.13;0.83;;;9.90;99.90;;;;;;5434052;26;20239;-74
2024/04/16 00:05:56;;;;;;;1.37;0.60;;;9.80;99.90;;;;;;5440929;26;20263;-73
2024/04/16 00:08:21;;;;;;;0.43;0.40;;;9.70;99.90;;;;;;5427962;26;20249;-73
2024/04/16 00:10:47;;;;;;;0.53;0.50;;;9.70;99.90;;;;;;5416615;26;20621;-72
2024/04/16 00:13:12;;;;;;;2.90;0.50;;;9.80;99.90;;;;;;5426125;26;20287;-73
2024/04/16 00:15:38;;;;;;;1.60;0.63;;;9.80;99.90;;;;;;5430756;26;20237;-72
2024/04/16 00:18:04;;;;;;;1.27;0.57;;;9.80;99.90;;;;;;5426567;26;20237;-74
2024/04/16 00:20:29;;;;;;;2.00;0.60;;;9.70;99.90;;;;;;5441477;26;20270;-74
2024/04/16 00:22:55;;;;;;;0.70;0.53;;;9.70;99.90;;;;;;5422137;26;20236;-74
2024/04/16 00:25:21;;;;;;;1.33;0.70;;;9.70;99.90;;;;;;5428858;26;20233;-74
2024/04/16 00:27:46;;;;;;;0.67;0.60;;;9.70;99.90;;;;;;5413700;26;20241;-75
2024/04/16 00:30:12;;;;;;;1.93;0.70;;;9.70;99.90;;;;;;5428302;26;20743;-74
2024/04/16 00:32:37;;;;;;;3.77;1.10;;;9.70;99.90;;;;;;5431197;26;20329;-73
2024/04/16 00:35:03;;;;;;;2.20;0.80;;;9.70;99.90;;;;;;5436546;26;20243;-74
2024/04/16 00:37:29;;;;;;;0.83;0.60;;;9.80;99.90;;;;;;5425536;26;20827;-73
2024/04/16 00:39:54;;;;;;;0.90;0.40;;;9.70;99.90;;;;;;5428738;26;20248;-74
2024/04/16 00:42:20;;;;;;;1.57;1.03;;;9.60;99.90;;;;;;5427648;26;20340;-74
2024/04/16 00:44:45;;;;;;;0.93;0.60;;;9.70;99.90;;;;;;5422038;26;20244;-74
2024/04/16 00:47:12;;;;;;;2.37;0.90;;;9.70;99.90;;;;;;5429112;26;20282;-74
2024/04/16 00:49:38;;;;;;;0.50;0.50;;;9.70;99.90;;;;;;5429117;26;20239;-73
2024/04/16 00:52:05;;;;;;;1.93;0.80;;;9.70;99.90;;;;;;5434818;26;20326;-73
2024/04/16 00:54:31;;;;;;;3.27;0.70;;;9.70;99.90;;;;;;5427121;26;20236;-71
2024/04/16 00:56:57;;;;;;;1.53;0.80;;;9.70;99.90;;;;;;5417152;26;20300;-73
2024/04/16 00:59:24;;;;;;;1.50;0.70;;;9.70;99.90;;;;;;5431449;26;20232;-73
2024/04/16 01:01:49;;;;;;;2.97;0.73;;;9.80;99.90;;;;;;5421000;26;20468;-76
2024/04/16 01:04:15;;;;;;;1.03;0.60;;;9.70;99.90;;;;;;5432374;26;20232;-73
2024/04/16 01:06:41;;;;;;;2.33;1.10;;;9.70;99.90;;;;;;5430258;26;20259;-73
2024/04/16 01:09:09;;;;;;;2.53;0.87;;;9.70;99.90;;;;;;5420938;26;20326;-72
2024/04/16 01:11:34;;;;;;;2.50;0.77;;;9.80;99.90;;;;;;5438794;26;20663;-73
2024/04/16 01:14:00;;;;;;;1.50;0.80;;;9.90;99.90;;;;;;5426490;26;20303;-75
2024/04/16 01:16:26;;;;;;;2.50;0.87;;;9.90;99.90;;;;;;5421634;26;20764;-72
2024/04/16 01:18:51;;;;;;;3.67;1.00;;;9.90;99.90;;;;;;5421156;26;20717;-73
2024/04/16 01:21:17;;;;;;;2.43;0.60;;;9.80;99.90;;;;;;5432252;26;20620;-73
2024/04/16 01:23:42;;;;;;;1.30;0.70;;;9.80;99.90;;;;;;5416507;26;20237;-72
2024/04/16 01:26:08;;;;;;;2.30;0.87;;;9.80;99.90;;;;;;5435160;26;20239;-73
2024/04/16 01:28:33;;;;;;;1.23;0.60;;;9.90;99.90;;;;;;5438085;26;20785;-73
2024/04/16 01:30:59;;;;;;;2.90;0.60;;;10.00;99.90;;;;;;5415878;26;20280;-73
2024/04/16 01:33:25;;;;;;;1.47;0.90;;;9.90;99.90;;;;;;5416482;26;20241;-73
2024/04/16 01:35:53;;;;;;;1.37;0.80;;;10.00;99.90;;;;;;5428337;26;20277;-73
2024/04/16 01:38:19;;;;;;;1.80;1.03;;;9.90;99.90;;;;;;5440098;26;20239;-74
2024/04/16 01:40:45;;;;;;;2.17;0.60;;;9.90;99.90;;;;;;5438903;26;20290;-73
2024/04/16 01:43:10;;;;;;;1.23;0.87;;;9.90;99.90;;;;;;5422081;26;20750;-72
2024/04/16 01:45:36;;;;;;;4.87;1.30;;;9.90;99.90;;;;;;5427899;26;20309;-74
2024/04/16 01:48:01;;;;;;;1.83;0.80;;;9.90;99.90;;;;;;5435510;26;20267;-74
2024/04/16 01:50:27;;;;;;;2.57;0.60;;;9.90;99.90;;;;;;5431572;26;20389;-73
2024/04/16 01:52:52;;;;;;;1.77;0.90;;;9.90;99.90;;;;;;5436305;26;20702;-74
2024/04/16 01:55:18;;;;;;;1.90;0.63;;;9.90;99.90;;;;;;5446585;26;20237;-73
2024/04/16 01:57:44;;;;;;;1.93;0.80;;;9.90;99.90;;;;;;5413956;26;20244;-73
2024/04/16 02:00:10;;;;;;;0.90;0.60;;;9.90;99.90;;;;;;5430278;26;20268;-74
2024/04/16 02:02:36;;;;;;;4.27;0.93;;;9.80;99.90;;;;;;5437201;26;20228;-73
2024/04/16 02:05:03;;;;;;;1.63;0.80;;;9.70;99.90;;;;;;5432430;26;20283;-72
2024/04/16 02:07:30;;;;;;;0.93;0.60;;;9.70;99.90;;;;;;5426149;26;20252;-75
2024/04/16 02:09:56;;;;;;;1.87;0.80;;;9.70;99.90;;;;;;5426833;26;20294;-73
2024/04/16 02:12:22;;;;;;;2.73;0.67;;;9.70;99.90;;;;;;5415559;26;20345;-73
2024/04/16 02:14:49;;;;;;;1.30;0.70;;;9.70;99.90;;;;;;5434812;26;20239;-74
2024/04/16 02:17:15;;;;;;;1.50;0.73;;;9.60;99.90;;;;;;5422462;26;20238;-73
2024/04/16 02:19:40;;;;;;;1.30;0.70;;;9.60;99.90;;;;;;5436346;26;20252;-74
2024/04/16 02:22:06;;;;;;;0.83;0.60;;;9.50;99.90;;;;;;5445036;26;20270;-73
2024/04/16 02:24:31;;;;;;;1.70;0.83;;;9.50;99.90;;;;;;5422280;26;20380;-73
2024/04/16 02:26:57;;;;;;;2.90;0.60;;;9.50;99.90;;;;;;5432481;26;20645;-73
2024/04/16 02:29:22;;;;;;;2.00;0.60;;;9.50;99.90;;;;;;5425367;26;20231;-72
2024/04/16 02:31:48;;;;;;;1.03;0.60;;;9.50;99.90;;;;;;5442170;26;20765;-74
2024/04/16 02:34:13;;;;;;;1.80;0.70;;;9.50;99.90;;;;;;5428712;26;20225;-75
2024/04/16 02:36:39;;;;;;;1.27;0.70;;;9.40;99.90;;;;;;5429256;26;20244;-73
2024/04/16 02:39:05;;;;;;;0.97;0.80;;;9.40;99.90;;;;;;5443223;26;20429;-73
2024/04/16 02:41:30;;;;;;;0.77;0.60;;;9.50;99.90;;;;;;5442208;26;20227;-74
2024/04/16 02:43:56;;;;;;;2.20;0.50;;;9.50;99.90;;;;;;5436382;26;20291;-76
2024/04/16 02:46:22;;;;;;;0.70;0.70;;;9.40;99.90;;;;;;5434136;26;20236;-72
2024/04/16 02:48:48;;;;;;;0.67;0.50;;;9.40;99.90;;;;;;5431742;26;20281;-73
2024/04/16 02:51:15;;;;;;;1.13;0.70;;;9.30;99.90;;;;;;5424545;26;20771;-73
2024/04/16 02:53:40;;;;;;;1.47;0.57;;;9.20;99.90;;;;;;5429946;26;20229;-73
2024/04/16 02:56:07;;;;;;;5.77;0.77;;;9.30;99.90;;;;;;5430217;26;20304;-73
2024/04/16 02:58:32;;;;;;;2.00;0.47;;;9.40;99.90;;;;;;5444152;26;20374;-73
2024/04/16 03:01:06;;;;;;;1.60;0.90;;;9.10;99.90;;;;;;5422890;26;20265;-72
2024/04/16 03:03:36;;;;;;;1.53;0.60;;;9.00;99.90;;;;;;5427986;26;20235;-73
2024/04/16 03:06:02;;;;;;;1.47;0.50;;;8.70;99.90;;;;;;5427940;26;20252;-75
2024/04/16 03:08:28;;;;;;;4.00;0.80;;;8.70;99.90;;;;;;5425040;26;20267;-75
2024/04/16 03:11:01;;;;;;;2.00;0.60;;;8.70;99.90;;;;;;5416179;26;20241;-75
2024/04/16 03:13:27;;;;;;;4.33;1.00;;;8.60;99.90;;;;;;5426855;26;20235;-75
2024/04/16 03:15:53;;;;;;;2.87;0.70;;;8.60;99.90;;;;;;5441772;26;20236;-74
2024/04/16 03:18:18;;;;;;;5.33;1.10;;;8.50;99.90;;;;;;5434516;26;20610;-74
2024/04/16 03:20:45;;;;;;;3.80;0.80;;;8.50;99.90;;;;;;5440677;26;20244;-74
2024/04/16 03:23:10;;;;;;;0.97;0.67;;;8.50;99.90;;;;;;5432373;26;20267;-74
2024/04/16 03:25:42;;;;;;;2.00;0.53;;;8.50;99.90;;;;;;5415683;26;20290;-74
2024/04/16 03:28:08;;;;;;;1.40;0.50;;;8.40;99.90;;;;;;5450350;26;20284;-75
2024/04/16 03:30:34;;;;;;;3.60;1.03;;;8.30;99.90;;;;;;5433967;26;20341;-73
2024/04/16 03:32:59;;;;;;;0.93;0.50;;;8.30;99.90;;;;;;5423981;26;20246;-72
2024/04/16 03:35:25;;;;;;;1.23;0.70;;;8.30;99.90;;;;;;5425528;26;20239;-73
2024/04/16 03:37:51;;;;;;;0.73;0.50;;;8.20;99.90;;;;;;5420874;26;20274;-71
2024/04/16 03:40:16;;;;;;;0.40;0.40;;;8.20;99.90;;;;;;5441965;26;20375;-73
2024/04/16 03:42:42;;;;;;;0.93;0.40;;;8.20;99.90;;;;;;5430878;26;20611;-72
2024/04/16 03:45:08;;;;;;;0.40;0.33;;;8.30;99.90;;;;;;5440424;26;20282;-74
2024/04/16 03:47:33;;;;;;;0.83;0.40;;;8.30;99.90;;;;;;5429362;26;20700;-73
2024/04/16 03:49:59;;;;;;;0.97;0.40;;;8.40;99.90;;;;;;5416481;26;20256;-74
2024/04/16 03:52:25;;;;;;;2.13;0.43;;;8.40;99.90;;;;;;5451105;26;20677;-72
2024/04/16 03:54:51;;;;;;;0.57;0.43;;;8.40;99.90;;;;;;5420193;26;20228;-72
2024/04/16 03:57:17;;;;;;;2.30;0.83;;;8.40;99.90;;;;;;5416778;26;20579;-72
2024/04/16 04:02:23;;;;;;;2.60;0.60;;;8.60;99.90;;;;;;5423049;26;20414;-73
2024/04/16 04:04:50;;;;;;;1.37;0.73;;;8.50;99.90;;;;;;5438876;26;20701;-73
2024/04/16 04:07:16;;;;;;;3.60;0.80;;;8.50;99.90;;;;;;5436545;26;20236;-74
2024/04/16 04:09:42;;;;;;;0.97;0.67;;;8.50;99.90;;;;;;5421338;26;20661;-73
2024/04/16 04:12:07;;;;;;;1.70;0.73;;;8.50;99.90;;;;;;5431857;26;20987;-73
2024/04/16 04:14:33;;;;;;;0.60;0.60;;;8.60;99.90;;;;;;5442774;26;20227;-74
2024/04/16 04:16:59;;;;;;;0.90;0.50;;;8.70;99.90;;;;;;5435360;26;20240;-74
2024/04/16 04:19:24;;;;;;;1.10;0.80;;;8.70;99.90;;;;;;5435181;26;20278;-75
2024/04/16 04:21:50;;;;;;;1.53;1.00;;;8.80;99.90;;;;;;5437379;26;20236;-74
2024/04/16 04:24:17;;;;;;;5.00;0.80;;;8.80;99.90;;;;;;5457217;26;20273;-74
2024/04/16 04:26:43;;;;;;;2.13;0.60;;;8.80;99.90;;;;;;5440773;26;20612;-73
2024/04/16 04:29:09;;;;;;;2.90;0.50;;;8.80;99.90;;;;;;5432290;26;20249;-74
2024/04/16 04:31:34;;;;;;;3.00;1.13;;;8.80;99.90;;;;;;5439628;26;20597;-73
2024/04/16 04:34:00;;;;;;;1.73;0.83;;;8.70;99.90;;;;;;5451849;26;20242;-73
2024/04/16 04:36:26;;;;;;;3.37;1.03;;;8.70;99.90;;;;;;5434241;26;20256;-73
2024/04/16 04:38:51;;;;;;;0.73;0.60;;;8.50;99.90;;;;;;5435227;26;20235;-75
2024/04/16 04:41:17;;;;;;;0.90;0.50;;;8.10;99.90;;;;;;5424445;26;20364;-73
2024/04/16 04:43:42;;;;;;;0.50;0.50;;;7.90;99.90;;;;;;5440111;26;20235;-72
2024/04/16 04:46:10;;;;;;;0.47;0.30;;;7.70;99.90;;;;;;5452427;26;20242;-73
2024/04/16 04:48:36;;;;;;;1.83;0.50;;;7.70;99.90;;;;;;5436513;26;20315;-73
2024/04/16 04:51:01;;;;;;;0.40;0.40;;;7.60;99.90;;;;;;5423807;26;20358;-73
2024/04/16 04:53:27;;;;;;;0.97;0.50;;;7.50;99.90;;;;;;5435111;26;20261;-73
2024/04/16 04:55:53;;;;;;;2.63;0.70;;;7.40;99.90;;;;;;5424750;26;20244;-73
2024/04/16 04:58:18;;;;;;;2.20;1.07;;;7.50;99.90;;;;;;5450793;26;20237;-76
2024/04/16 05:00:44;;;;;;;2.17;0.83;;;7.50;99.90;;;;;;5421898;26;20314;-73
2024/04/16 05:03:09;;;;;;;0.70;0.50;;;7.50;99.90;;;;;;5447650;26;20402;-73
2024/04/16 05:05:35;;;;;;;0.97;0.43;;;7.50;99.90;;;;;;5437379;26;20272;-73
2024/04/16 05:08:01;;;;;;;0.60;0.53;;;7.60;99.90;;;;;;5441023;26;20279;-74
2024/04/16 05:10:26;;;;;;;1.03;0.80;;;7.60;99.90;;;;;;5427556;26;20253;-73
2024/04/16 05:12:55;;;;;;;1.67;1.20;;;7.60;99.90;;;;;;5431817;26;20238;-73
2024/04/16 05:15:21;;;;;;;2.70;1.20;;;7.60;99.90;;;;;;5443311;26;20289;-75
2024/04/16 05:17:49;;;;;;;2.93;1.50;;;7.70;99.90;;;;;;5428930;26;20669;-73
2024/04/16 05:20:16;;;;;;;4.50;2.07;;;7.80;99.90;;;;;;5430507;26;20295;-73
2024/04/16 05:22:43;;;;;;;3.77;1.60;;;7.80;99.90;;;;;;5432103;26;20232;-74
2024/04/16 05:25:09;;;;;;;2.47;0.90;;;7.80;99.90;;;;;;5419247;26;20238;-73
2024/04/16 05:27:34;;;;;;;2.77;1.03;;;7.90;99.90;;;;;;5422252;26;20264;-74
2024/04/16 05:30:00;;;;;;;1.67;1.10;;;7.80;99.90;;;;;;5430534;26;20437;-73
2024/04/16 05:32:26;;;;;;;2.50;1.00;;;8.10;99.90;;;;;;5430438;26;20277;-75
2024/04/16 05:34:51;;;;;;;1.33;0.90;;;8.70;99.90;;;;;;5444197;26;20338;-74
2024/04/16 05:37:17;;;;;;;2.20;0.90;;;9.40;99.90;;;;;;5444995;26;20315;-74
2024/04/16 05:39:43;;;;;;;4.70;1.10;;;9.80;99.90;;;;;;5433522;26;20292;-73
2024/04/16 05:42:11;;;;;;;1.73;1.03;;;9.70;99.90;;;;;;5435863;26;20609;-74
2024/04/16 05:44:37;;;;;;;2.30;0.93;;;9.50;99.90;;;;;;5430307;26;20240;-73
2024/04/16 05:47:03;;;;;;;1.80;0.73;;;9.70;99.90;;;;;;5430016;26;20701;-75
2024/04/16 05:49:28;;;;;;;1.07;0.80;;;9.90;99.90;;;;;;5438617;26;20228;-72
2024/04/16 05:51:54;;;;;;;2.13;0.70;;;10.50;99.90;;;;;;5437738;26;20805;-73
2024/04/16 05:54:20;;;;;;;3.20;1.67;;;11.00;99.90;;;;;;5424080;26;20279;-73
2024/04/16 05:56:46;;;;;;;1.00;0.60;;;11.30;99.90;;;;;;5444584;26;20233;-73
2024/04/16 05:59:12;;;;;;;1.70;0.90;;;11.60;99.90;;;;;;5439294;26;21052;-74
2024/04/16 06:01:37;;;;;;;1.67;1.13;;;11.60;99.90;;;;;;5431259;26;20274;-75
2024/04/16 06:04:03;;;;;;;1.15;0.77;;;11.70;99.90;;;;;;5425459;26;20244;-74
2024/04/16 06:06:28;;;;;;;2.05;0.75;;;11.70;99.90;;;;;;5434857;26;20236;-73
2024/04/16 06:08:54;;;;;;;2.80;0.80;;;11.90;99.90;;;;;;5439239;26;20288;-73
2024/04/16 06:11:20;;;;;;;2.65;0.70;;;12.20;99.90;;;;;;5430327;26;20325;-74
2024/04/16 06:13:55;;;;;;;3.58;0.95;;;12.40;99.90;;;;;;5429413;26;20233;-73
2024/04/16 06:16:20;;;;;;;2.42;1.05;;;12.20;99.90;;;;;;5419960;26;20581;-74
2024/04/16 06:18:46;;;;;;;1.47;0.87;;;11.40;99.90;;;;;;5435352;26;20235;-73
2024/04/16 06:21:11;;;;;;;3.38;0.90;;;11.00;99.90;;;;;;5432459;26;20257;-73
2024/04/16 06:23:37;;;;;;;6.55;1.42;;;11.20;99.90;;;;;;5427557;26;20780;-71
2024/04/16 06:26:09;;;;;;;2.85;0.93;;;11.50;99.90;;;;;;5420967;26;20277;-72
2024/04/16 06:28:35;;;;;;;5.35;1.40;;;11.80;99.90;;;;;;5416353;26;20394;-74
2024/04/16 06:31:01;;;;;;;2.70;1.00;;;12.00;99.90;;;;;;5415394;26;20271;-74
2024/04/16 06:33:31;;;;;;;4.03;1.20;;;12.30;99.90;;;;;;5437926;26;20235;-74
2024/04/16 06:35:57;;;;;;;4.05;1.17;;;12.50;99.90;;;;;;5428753;26;20291;-75
2024/04/16 06:38:24;;;;;;;3.00;1.00;;;12.60;99.90;;;;;;5428998;26;20236;-73
2024/04/16 06:40:51;;;;;;;2.90;0.90;;;12.70;99.90;;;;;;5432476;26;20673;-74
2024/04/16 06:43:16;;;;;;;2.03;1.15;;;12.90;99.90;;;;;;5430013;26;20707;-73
2024/04/16 06:45:42;;;;;;;2.70;1.13;;;13.00;99.90;;;;;;5431868;26;20239;-73
2024/04/16 06:48:07;;;;;;;6.15;1.42;;;13.10;99.90;;;;;;5419017;26;20256;-73
2024/04/16 06:50:33;;;;;;;3.75;1.23;;;13.30;99.90;;;;;;5428601;26;20248;-73
2024/04/16 06:52:59;;;;;;;5.50;1.30;;;13.20;99.90;;;;;;5422386;26;20345;-73
2024/04/16 06:55:25;;;;;;;4.13;1.13;;;12.60;99.90;;;;;;5430041;26;20390;-74
2024/04/16 06:57:51;;;;;;;2.13;0.88;;;12.30;99.90;;;;;;5444638;26;20244;-73
2024/04/16 07:00:16;;;;;;;2.90;1.27;;;12.30;99.90;;;;;;5414744;26;20248;-73
2024/04/16 07:02:42;;;;;;;2.35;1.20;;;12.00;99.90;;;;;;5433694;26;20233;-75
2024/04/16 07:05:09;;;;;;;2.47;0.90;;;11.50;99.90;;;;;;5426446;26;20580;-75
2024/04/16 07:07:36;;;;;;;4.13;1.43;;;11.20;99.90;;;;;;5431525;26;20241;-73
2024/04/16 07:10:02;;;;;;;3.53;1.15;;;11.20;99.90;;;;;;5429411;26;20264;-73
2024/04/16 07:12:28;;;;;;;6.38;1.10;;;11.60;99.90;;;;;;5444675;26;20718;-73
2024/04/16 07:14:53;;;;;;;5.72;1.10;;;11.80;99.90;;;;;;5428726;26;20223;-75
2024/04/16 07:17:19;;;;;;;4.53;1.10;;;12.00;99.90;;;;;;5435083;26;20627;-73
2024/04/16 07:19:44;;;;;;;4.27;1.20;;;11.90;99.90;;;;;;5433957;26;20633;-73
2024/04/16 07:22:10;;;;;;;4.53;1.27;;;11.80;99.90;;;;;;5433180;26;20237;-74
2024/04/16 07:24:36;;;;;;;5.07;1.57;;;11.90;99.90;;;;;;5426835;26;20326;-74
2024/04/16 07:27:01;;;;;;;7.32;1.33;;;11.90;99.90;;;;;;5436625;26;20225;-74
2024/04/16 07:29:27;;;;;;;4.28;1.50;;;11.90;99.90;;;;;;5420439;26;20249;-73
2024/04/16 07:31:52;;;;;;;6.40;1.42;;;11.70;99.90;;;;;;5446067;26;20243;-74
2024/04/16 07:34:18;;;;;;;3.63;1.45;;;11.80;99.90;;;;;;5437242;26;20267;-74
2024/04/16 07:36:44;;;;;;;6.72;1.45;;;11.60;99.90;;;;;;5451433;26;20228;-74
2024/04/16 07:39:10;;;;;;;4.47;1.60;;;11.50;99.90;;;;;;5426738;26;20237;-74
2024/04/16 07:41:36;;;;;;;4.82;1.40;;;11.70;99.90;;;;;;5429492;26;20279;-75
2024/04/16 07:44:01;;;;;;;5.82;1.50;;;12.10;99.90;;;;;;5428409;26;20233;-73
2024/04/16 07:46:27;;;;;;;2.63;1.20;;;12.10;99.90;;;;;;5437575;26;20289;-74
2024/04/16 07:48:53;;;;;;;4.75;1.00;;;12.10;99.90;;;;;;5421853;26;20240;-73
2024/04/16 07:51:18;;;;;;;3.55;1.30;;;11.90;99.90;;;;;;5438822;26;20240;-74
2024/04/16 07:53:44;;;;;;;2.75;0.93;;;11.60;99.90;;;;;;5422596;26;20716;-73
2024/04/16 07:56:10;;;;;;;6.20;1.20;;;11.60;99.90;;;;;;5439188;26;20232;-71
2024/04/16 07:58:35;;;;;;;6.20;1.02;;;11.30;99.90;;;;;;5435870;26;20275;-72
2024/04/16 08:01:01;;;;;;;1.83;1.07;;;11.40;99.90;;;;;;5435877;26;20245;-73
2024/04/16 08:03:28;;;;;;;6.60;1.20;;;11.70;99.90;;;;;;5450459;26;20236;-72
2024/04/16 08:05:53;;;;;;;3.30;1.08;;;12.20;99.90;;;;;;5446307;26;20227;-73
2024/04/16 08:08:19;;;;;;;2.95;1.00;;;12.60;99.90;;;;;;5433483;26;20271;-73
2024/04/16 08:10:44;;;;;;;4.05;1.55;;;12.60;99.90;;;;;;5420101;26;20644;-73
2024/04/16 08:13:10;;;;;;;3.90;1.35;;;12.70;99.90;;;;;;5416438;26;20267;-73
2024/04/16 08:15:36;;;;;;;3.45;1.10;;;13.00;99.90;;;;;;5433155;26;20227;-75
2024/04/16 08:18:01;;;;;;;2.55;0.93;;;13.00;99.90;;;;;;5429844;26;20232;-73
2024/04/16 08:20:27;;;;;;;4.18;1.38;;;12.90;99.90;;;;;;5417149;26;20735;-72
2024/04/16 08:22:55;;;;;;;5.03;1.30;;;12.90;99.90;;;;;;5415115;26;20287;-72
2024/04/16 08:25:22;;;;;;;4.35;1.05;;;13.00;99.90;;;;;;5420883;26;20245;-73
2024/04/16 08:27:47;;;;;;;4.40;1.48;;;13.20;99.90;;;;;;5429027;26;20726;-72
2024/04/16 08:30:13;;;;;;;3.65;1.13;;;13.00;99.90;;;;;;5429254;26;20337;-74
2024/04/16 08:32:38;;;;;;;4.10;1.05;;;12.70;99.90;;;;;;5418469;26;20240;-74
2024/04/16 08:35:04;;;;;;;5.05;1.23;;;12.40;99.90;;;;;;5429207;26;20294;-73
2024/04/16 08:37:30;;;;;;;3.53;1.17;;;12.10;99.90;;;;;;5427897;26;20282;-72
2024/04/16 08:39:56;;;;;;;5.00;1.10;;;11.80;99.90;;;;;;5422418;26;20240;-72
2024/04/16 08:42:22;;;;;;;3.63;1.33;;;11.70;99.90;;;;;;5424310;26;20719;-74
2024/04/16 08:44:48;;;;;;;4.05;1.23;;;11.40;99.90;;;;;;5426863;26;20652;-73
2024/04/16 08:47:17;;;;;;;5.00;1.15;;;11.30;99.90;;;;;;5411706;26;20280;-73
2024/04/16 08:49:44;;;;;;;3.17;1.47;;;11.00;99.90;;;;;;5419844;26;20630;-73
2024/04/16 08:52:12;;;;;;;3.42;1.13;;;11.00;99.90;;;;;;5440192;26;20271;-73
2024/04/16 08:54:38;;;;;;;4.90;1.45;;;11.10;99.90;;;;;;5426805;26;20279;-74
2024/04/16 08:57:04;;;;;;;5.00;1.17;;;10.90;99.90;;;;;;5418383;26;20240;-76
2024/04/16 08:59:31;;;;;;;3.10;1.02;;;10.80;99.90;;;;;;5449507;26;20678;-73
2024/04/16 09:01:57;;;;;;;4.90;1.27;;;10.80;99.90;;;;;;5422516;26;20236;-74
2024/04/16 09:04:24;;;;;;;4.72;1.30;;;10.90;99.90;;;;;;5422948;26;20750;-73
2024/04/16 09:06:51;;;;;;;2.50;1.03;;;11.10;99.90;;;;;;5428601;26;20233;-73
2024/04/16 09:09:17;;;;;;;6.72;1.60;;;11.30;99.90;;;;;;5425264;26;20256;-73
2024/04/16 09:11:45;;;;;;;1.92;0.82;;;12.00;99.90;;;;;;5425916;26;20345;-74
2024/04/16 09:14:11;;;;;;;7.10;1.00;;;12.30;99.90;;;;;;5430183;26;20590;-73
2024/04/16 09:16:37;;;;;;;9.07;1.10;;;12.10;99.90;;;;;;5434107;26;20284;-73
2024/04/16 09:19:10;;;;;;;2.80;0.97;;;12.00;99.90;;;;;;5429435;26;20295;-74
2024/04/16 09:21:36;;;;;;;3.20;1.20;;;11.90;99.90;;;;;;5430225;26;20253;-74
2024/04/16 09:24:02;;;;;;;2.80;0.93;;;11.90;99.90;;;;;;5423867;26;20683;-73
2024/04/16 09:26:28;;;;;;;5.80;1.30;;;11.90;99.90;;;;;;5417876;26;20302;-73
2024/04/16 09:28:54;;;;;;;5.68;1.23;;;12.00;99.90;;;;;;5430107;26;20249;-74
2024/04/16 09:31:19;;;;;;;4.97;0.93;;;12.10;99.90;;;;;;5435507;26;20357;-73
2024/04/16 09:33:45;;;;;;;2.50;0.80;;;11.90;99.90;;;;;;5430207;26;20445;-73
2024/04/16 09:36:14;;;;;;;2.30;0.77;;;11.90;99.90;;;;;;5432574;26;20286;-73
2024/04/16 09:38:44;;;;;;;5.90;0.98;;;11.90;99.90;;;;;;5447256;26;20738;-73
2024/04/16 09:41:11;;;;;;;6.50;1.10;;;11.80;99.90;;;;;;5424376;26;20275;-74
2024/04/16 09:43:40;;;;;;;2.08;0.80;;;11.90;99.90;;;;;;5425289;26;20241;-73
2024/04/16 09:46:14;;;;;;;3.03;1.35;;;12.00;99.90;;;;;;5432334;26;20292;-72
2024/04/16 09:48:41;;;;;;;2.35;0.77;;;12.10;99.90;;;;;;5418456;26;20287;-73
2024/04/16 09:51:08;;;;;;;4.35;1.10;;;12.00;99.90;;;;;;5426942;26;20280;-73
2024/04/16 09:53:37;;;;;;;3.53;0.63;;;12.00;99.90;;;;;;5423057;26;20723;-73
2024/04/16 09:56:07;;;;;;;5.70;1.13;;;12.10;99.90;;;;;;5448822;26;20314;-74
2024/04/16 09:58:33;;;;;;;4.20;1.33;;;12.30;99.90;;;;;;5425091;26;20271;-72
2024/04/16 10:01:00;;;;;;;2.95;0.73;;;12.30;99.90;;;;;;5417256;26;20291;-74
2024/04/16 10:03:30;;;;;;;1.58;0.80;;;12.10;99.90;;;;;;5428365;26;20659;-73
2024/04/16 10:05:56;;;;;;;3.03;0.93;;;11.90;99.90;;;;;;5429518;26;20287;-73
2024/04/16 10:08:24;;;;;;;1.30;0.70;;;11.90;99.90;;;;;;5421390;26;20349;-74
2024/04/16 10:10:53;;;;;;;4.00;1.00;;;11.80;99.90;;;;;;5413980;26;20248;-75
2024/04/16 10:13:18;;;;;;;2.77;0.90;;;11.70;99.90;;;;;;5416129;26;20249;-72
2024/04/16 10:15:48;;;;;;;2.55;0.90;;;11.70;99.90;;;;;;5419660;26;22415;-72
2024/04/16 10:18:14;;;;;;;2.15;0.60;;;11.70;99.90;;;;;;5432511;26;20236;-74
2024/04/16 10:20:58;;;;;;;3.50;0.95;;;11.70;99.90;;;;;;5438952;26;20231;-73
2024/04/16 10:23:23;;;;;;;1.40;0.60;;;11.80;99.90;;;;;;5440173;26;20236;-74
2024/04/16 10:25:53;;;;;;;3.05;0.90;;;11.80;99.90;;;;;;5416994;26;20788;-74
2024/04/16 10:28:23;;;;;;;2.85;0.77;;;11.80;99.90;;;;;;5427496;26;20244;-74
2024/04/16 10:30:59;;;;;;;4.53;1.08;;;11.80;99.90;;;;;;5429986;26;20357;-73
2024/04/16 10:33:25;;;;;;;2.70;0.77;;;11.90;99.90;;;;;;5418034;26;20267;-73
2024/04/16 10:35:53;;;;;;;2.70;0.70;;;12.10;99.90;;;;;;5425888;26;20228;-73
2024/04/16 10:38:19;;;;;;;3.22;0.95;;;12.20;99.90;;;;;;5430731;26;20249;-73
2024/04/16 10:40:54;;;;;;;2.35;0.70;;;12.20;99.90;;;;;;5450671;26;20403;-74
2024/04/16 10:43:23;;;;;;;3.88;0.70;;;12.30;99.90;;;;;;5422671;26;20270;-73
2024/04/16 10:45:49;;;;;;;2.63;0.60;;;12.30;99.90;;;;;;5432334;26;20229;-74
2024/04/16 10:48:17;;;;;;;3.20;0.70;;;12.30;99.90;;;;;;5424493;26;20296;-75
2024/04/16 10:50:44;;;;;;;1.20;0.60;;;12.30;99.90;;;;;;5415312;26;20284;-74
2024/04/16 10:53:14;;;;;;;4.13;0.75;;;12.20;99.90;;;;;;5420621;26;20228;-74
2024/04/16 10:55:43;;;;;;;2.30;0.50;;;12.30;99.90;;;;;;5417507;26;20237;-71
2024/04/16 10:58:10;;;;;;;2.38;0.82;;;12.60;99.90;;;;;;5428631;26;20232;-72
2024/04/16 11:00:36;;;;;;;0.73;0.50;;;12.80;99.90;;;;;;5417901;26;20300;-73
2024/04/16 11:03:02;;;;;;;2.97;0.68;;;13.00;99.90;;;;;;5432280;26;20278;-75
2024/04/16 11:05:28;;;;;;;2.35;0.68;;;13.00;99.90;;;;;;5423661;26;20316;-73
2024/04/16 11:07:53;;;;;;;3.15;0.73;;;12.90;99.90;;;;;;5429185;26;20229;-73
2024/04/16 11:10:19;;;;;;;1.25;0.63;;;12.90;99.90;;;;;;5436348;26;20279;-72
2024/04/16 11:12:45;;;;;;;3.83;0.77;;;12.80;99.90;;;;;;5424680;26;20485;-73
2024/04/16 11:15:11;;;;;;;1.33;0.70;;;13.00;99.90;;;;;;5426165;26;20334;-72
2024/04/16 11:17:36;;;;;;;1.75;0.60;;;13.20;99.90;;;;;;5448758;26;20227;-73
2024/04/16 11:20:03;;;;;;;1.83;0.70;;;13.40;99.90;;;;;;5420308;26;20235;-74
2024/04/16 11:22:29;;;;;;;1.23;0.50;;;13.50;99.90;;;;;;5419764;26;20244;-73
2024/04/16 11:24:55;;;;;;;4.63;0.60;;;13.40;99.90;;;;;;5424459;26;20286;-73
2024/04/16 11:27:22;;;;;;;4.00;0.77;;;13.20;99.90;;;;;;5431960;26;20579;-73
2024/04/16 11:29:49;;;;;;;2.85;0.90;;;13.00;99.90;;;;;;5435132;26;20270;-73
2024/04/16 11:32:20;;;;;;;1.15;0.60;;;12.90;99.90;;;;;;5414907;26;20241;-74
2024/04/16 11:34:46;;;;;;;2.10;0.80;;;12.80;99.90;;;;;;5442711;26;20261;-73
2024/04/16 11:37:13;;;;;;;2.47;0.80;;;12.80;99.90;;;;;;5433481;26;20241;-75
2024/04/16 11:39:40;;;;;;;4.53;0.85;;;12.70;99.90;;;;;;5443968;26;20274;-73
2024/04/16 11:42:07;;;;;;;4.03;0.73;;;12.60;99.90;;;;;;5428243;26;20255;-72
2024/04/16 11:44:38;;;;;;;2.90;0.88;;;12.60;99.90;;;;;;5415568;26;20619;-74
2024/04/16 11:47:05;;;;;;;2.20;0.95;;;12.50;99.90;;;;;;5450036;26;20232;-72
2024/04/16 11:49:31;;;;;;;1.23;0.50;;;12.30;99.90;;;;;;5414558;26;20333;-71
2024/04/16 11:52:00;;;;;;;1.95;0.68;;;12.00;99.90;;;;;;5421078;26;20271;-73
2024/04/16 11:54:26;;;;;;;3.92;0.60;;;11.60;99.90;;;;;;5425688;26;20287;-74
2024/04/16 11:56:51;;;;;;;1.38;0.43;;;11.40;99.90;;;;;;5419146;26;20244;-74
2024/04/16 11:59:17;;;;;;;1.00;0.52;;;11.30;99.90;;;;;;5421729;26;20236;-73
2024/04/16 12:01:42;;;;;;;1.30;0.60;;;11.40;99.90;;;;;;5421043;26;20237;-75
2024/04/16 12:04:08;;;;;;;0.80;0.50;;;11.40;99.90;;;;;;5424785;26;20590;-73
2024/04/16 12:06:34;;;;;;;1.50;0.60;;;11.40;99.90;;;;;;5427518;26;20349;-73
2024/04/16 12:08:59;;;;;;;1.27;0.60;;;11.40;99.90;;;;;;5438320;26;20240;-73
2024/04/16 12:11:25;;;;;;;1.48;0.60;;;11.40;99.90;;;;;;5414168;26;20773;-72
2024/04/16 12:13:53;;;;;;;2.77;0.50;;;11.30;99.90;;;;;;5431482;26;20236;-74
2024/04/16 12:16:18;;;;;;;0.87;0.40;;;11.20;99.90;;;;;;5415611;26;20656;-73
2024/04/16 12:18:44;;;;;;;1.90;0.60;;;11.10;99.90;;;;;;5438011;26;20298;-73
2024/04/16 12:21:09;;;;;;;2.67;0.50;;;11.20;99.90;;;;;;5499593;21;20397;-72
2024/04/16 12:23:35;;;;;;;1.20;0.60;;;11.30;99.90;;;;;;5496142;26;20281;-71
2024/04/16 12:26:00;;;;;;;0.52;0.50;;;11.40;99.90;;;;;;5499761;26;20559;-72
2024/04/16 12:28:26;;;;;;;0.60;0.43;;;11.40;99.90;;;;;;5502221;26;20242;-71
2024/04/16 12:30:52;;;;;;;1.60;0.40;;;11.30;99.90;;;;;;5500545;26;20286;-72
2024/04/16 12:33:17;;;;;;;0.55;0.50;;;11.30;99.90;;;;;;5507469;25;20326;-70
2024/04/16 12:35:43;;;;;;;2.58;0.50;;;11.40;99.90;;;;;;5498337;26;20234;-73
2024/04/16 12:38:09;;;;;;;1.75;0.85;;;11.60;99.90;;;;;;5499153;26;20261;-72
2024/04/16 12:40:35;;;;;;;1.38;0.63;;;11.60;99.90;;;;;;5495209;26;20231;-71
2024/04/16 12:43:00;;;;;;;1.35;0.52;;;11.50;99.90;;;;;;5506633;26;20238;-70
2024/04/16 12:45:26;;;;;;;1.13;0.50;;;11.60;99.90;;;;;;5505792;26;20239;-71
2024/04/16 12:47:51;;;;;;;0.80;0.40;;;11.50;99.90;;;;;;5488988;26;20231;-72